Terminal Aerodrome Forecast
Issued by NWS Missoula, MT

Home | Current Version | Previous Version | Text Only | Print | Product List | Glossary On
Versions: 1 2 3 4 5 6 7 8 9 10 11 12 13
000
FTUS45 KMSO 180500
TAFBTM
TAF
KBTM 180520Z 1806/1906 24008KT P6SM BKN070
     FM180800 24008KT P6SM -RA SCT030 OVC040
     FM181000 30008KT P6SM -SN OVC030
     FM181700 28012G22KT P6SM VCSH OVC050
     FM182100 29022G32KT P6SM BKN070=

USA.gov is the U.S. government's official web portal to all federal, state and local government web resources and services.